Time;durP1;ratioP1;P1;durP2;ratioP2;P2;SDS_P1;SDS_P2;PMS_P1;PMS_P2;Temp;Humidity;BMP_temperature;BMP_pressure;BME280_temperature;BME280_humidity;BME280_pressure;Samples;Min_cycle;Max_cycle;Signal;HPM_P1;HPM_P2
2022/09/03 00:02:01;;;;;;;2.60;0.80;;;21.10;73.70;;;;;;5052144;28;20068;-68
2022/09/03 00:04:39;;;;;;;;;;;21.10;73.70;;;;;;5051786;28;20028;-68
2022/09/03 00:07:25;;;;;;;0.88;0.35;;;21.10;74.30;;;;;;5050715;28;19936;-69
2022/09/03 00:10:00;;;;;;;0.90;0.43;;;21.10;74.30;;;;;;5035221;28;20033;-68
2022/09/03 00:12:36;;;;;;;7.53;1.10;;;21.00;74.40;;;;;;5018324;28;20029;-68
2022/09/03 00:15:11;;;;;;;0.32;0.22;;;21.10;74.60;;;;;;5035322;28;20029;-68
2022/09/03 00:17:46;;;;;;;0.95;0.30;;;21.00;74.70;;;;;;5052064;28;20021;-68
2022/09/03 00:20:25;;;;;;;0.38;0.30;;;21.00;74.90;;;;;;5018160;28;20112;-68
2022/09/03 00:22:55;;;;;;;0.70;0.40;;;21.00;75.30;;;;;;5034955;28;20574;-69
2022/09/03 00:25:51;;;;;;;0.52;0.40;;;21.00;75.00;;;;;;5034231;28;20044;-69
2022/09/03 00:28:33;;;;;;;2.53;0.80;;;21.00;75.50;;;;;;5051707;28;20036;-69
2022/09/03 00:31:37;;;;;;;0.93;0.40;;;21.00;76.00;;;;;;5034649;28;20778;-69
2022/09/03 00:34:32;;;;;;;0.82;0.35;;;20.90;75.70;;;;;;5051563;28;20082;-69
2022/09/03 00:36:58;;;;;;;0.55;0.30;;;20.90;75.80;;;;;;5050276;28;20044;-69
2022/09/03 00:39:26;;;;;;;1.10;0.50;;;20.90;75.80;;;;;;5033879;28;20049;-69
2022/09/03 00:42:22;;;;;;;0.80;0.60;;;20.90;75.80;;;;;;5033628;28;20047;-69
2022/09/03 00:45:18;;;;;;;0.52;0.22;;;21.00;75.10;;;;;;5051526;28;20029;-68
2022/09/03 00:48:02;;;;;;;0.28;0.28;;;21.00;75.00;;;;;;5051458;28;20075;-69
2022/09/03 00:51:16;;;;;;;0.52;0.35;;;21.00;74.70;;;;;;5033429;28;20056;-68
2022/09/03 00:54:03;;;;;;;0.73;0.40;;;21.00;75.00;;;;;;5032330;28;20048;-68
2022/09/03 00:57:09;;;;;;;3.42;0.98;;;20.90;75.10;;;;;;5051382;28;20036;-68
2022/09/03 01:00:04;;;;;;;0.55;0.45;;;20.90;75.00;;;;;;5051262;28;20029;-68
2022/09/03 01:03:00;;;;;;;1.35;0.45;;;20.90;75.30;;;;;;5017998;28;20397;-69
2022/09/03 01:06:08;;;;;;;0.73;0.40;;;20.90;75.40;;;;;;5042730;28;20119;-69
2022/09/03 01:09:01;;;;;;;0.38;0.38;;;20.90;75.50;;;;;;5039903;28;20045;-68
2022/09/03 01:11:46;;;;;;;1.33;0.57;;;20.90;75.50;;;;;;5022645;28;20029;-68
2022/09/03 01:14:28;;;;;;;0.98;0.40;;;20.80;75.80;;;;;;5050807;28;20036;-69
2022/09/03 01:17:19;;;;;;;1.55;0.30;;;20.70;75.90;;;;;;5050641;28;20611;-69
2022/09/03 01:20:03;;;;;;;0.40;0.40;;;20.70;76.30;;;;;;5033932;28;20068;-68
2022/09/03 01:23:08;;;;;;;0.55;0.40;;;20.70;76.50;;;;;;5050650;28;20087;-68
2022/09/03 01:25:53;;;;;;;0.45;0.30;;;20.70;76.70;;;;;;5030959;28;20120;-68
2022/09/03 01:28:39;;;;;;;1.03;0.60;;;20.50;77.30;;;;;;5030610;28;20033;-68
2022/09/03 01:31:48;;;;;;;0.77;0.20;;;20.50;77.70;;;;;;5030571;28;20037;-68
2022/09/03 01:34:17;;;;;;;0.28;0.20;;;20.40;77.90;;;;;;5030763;28;20079;-68
2022/09/03 01:36:54;;;;;;;1.13;0.57;;;20.40;78.10;;;;;;5030697;28;20087;-68
2022/09/03 01:39:52;;;;;;;0.90;0.50;;;20.40;78.50;;;;;;5029559;28;20033;-67
2022/09/03 01:42:34;;;;;;;1.42;0.32;;;20.30;78.90;;;;;;5031007;28;20060;-67
2022/09/03 01:45:18;;;;;;;0.55;0.30;;;20.30;79.10;;;;;;5050357;28;20037;-67
2022/09/03 01:48:01;;;;;;;1.45;0.40;;;20.30;79.00;;;;;;5032914;28;20108;-68
2022/09/03 01:51:22;;;;;;;0.20;0.20;;;20.30;79.10;;;;;;5050172;28;20493;-69
2022/09/03 01:54:33;;;;;;;0.30;0.22;;;20.30;79.10;;;;;;4972787;28;20038;-70
2022/09/03 01:57:39;;;;;;;;;;;20.20;79.30;;;;;;4989266;28;20035;-67
2022/09/03 02:00:13;;;;;;;0.32;0.20;;;20.20;79.30;;;;;;4988786;28;19917;-68
2022/09/03 02:02:42;;;;;;;0.52;0.30;;;20.20;79.60;;;;;;4972822;28;20034;-68
2022/09/03 02:05:17;;;;;;;0.55;0.35;;;20.20;79.40;;;;;;4972918;28;20046;-68
2022/09/03 02:08:00;;;;;;;0.30;0.30;;;20.20;79.50;;;;;;4972747;28;20030;-68
2022/09/03 02:10:44;;;;;;;0.82;0.40;;;20.20;79.70;;;;;;4988237;28;20038;-68
2022/09/03 02:13:21;;;;;;;15.05;0.90;;;20.20;79.40;;;;;;4988298;28;20039;-68
2022/09/03 02:15:49;;;;;;;1.45;0.60;;;20.20;79.50;;;;;;4957226;28;20111;-68
2022/09/03 02:18:24;;;;;;;0.35;0.32;;;20.20;79.70;;;;;;4933736;29;20488;-68
2022/09/03 02:20:53;;;;;;;1.50;0.43;;;20.20;79.60;;;;;;4950006;29;20089;-68
2022/09/03 02:23:20;;;;;;;1.23;0.50;;;20.20;79.30;;;;;;4956740;28;20110;-68
2022/09/03 02:25:54;;;;;;;0.38;0.30;;;20.20;79.60;;;;;;5030385;28;20051;-68
2022/09/03 02:28:20;;;;;;;0.45;0.30;;;20.30;79.70;;;;;;5030575;28;20037;-68
2022/09/03 02:30:47;;;;;;;0.60;0.25;;;20.30;80.20;;;;;;5033585;28;20519;-69
2022/09/03 02:33:14;;;;;;;0.50;0.30;;;20.30;79.90;;;;;;5032524;28;20064;-68
2022/09/03 02:35:40;;;;;;;0.57;0.43;;;20.30;80.10;;;;;;5032589;28;20033;-68
2022/09/03 02:38:24;;;;;;;1.10;0.38;;;20.30;79.90;;;;;;5043994;23;20132;-65
2022/09/03 02:40:50;;;;;;;1.05;0.38;;;20.30;80.60;;;;;;5030105;28;20033;-66
2022/09/03 02:43:41;;;;;;;0.80;0.60;;;20.30;80.40;;;;;;5016038;28;20040;-65
2022/09/03 02:46:13;;;;;;;0.95;0.40;;;20.20;80.20;;;;;;5033343;28;20083;-65
2022/09/03 02:48:39;;;;;;;0.75;0.55;;;20.20;80.40;;;;;;5032391;28;20628;-65
2022/09/03 02:51:05;;;;;;;1.10;0.65;;;20.20;81.80;;;;;;5033584;28;20045;-65
2022/09/03 02:53:30;;;;;;;0.68;0.30;;;20.20;84.30;;;;;;5031950;28;20025;-65
2022/09/03 02:56:02;;;;;;;2.13;0.85;;;20.10;84.20;;;;;;5033499;28;20112;-65
2022/09/03 02:58:30;;;;;;;0.98;0.57;;;20.10;84.60;;;;;;5033574;28;20022;-65
2022/09/03 03:00:56;;;;;;;0.57;0.30;;;20.00;83.80;;;;;;5033198;28;20029;-65
2022/09/03 03:03:22;;;;;;;0.38;0.30;;;20.00;82.00;;;;;;5029747;28;20026;-66
2022/09/03 03:05:56;;;;;;;0.20;0.10;;;19.90;82.10;;;;;;5031597;28;20057;-66
2022/09/03 03:08:26;;;;;;;2.38;0.20;;;19.90;81.80;;;;;;5015155;28;20048;-66
2022/09/03 03:10:55;;;;;;;2.10;0.55;;;19.90;81.30;;;;;;5032952;28;20448;-66
2022/09/03 03:13:22;;;;;;;0.40;0.30;;;19.90;81.40;;;;;;5015203;28;20040;-66
2022/09/03 03:15:48;;;;;;;0.98;0.45;;;19.90;81.80;;;;;;5032961;28;20026;-66
2022/09/03 03:18:16;;;;;;;0.38;0.35;;;19.80;82.00;;;;;;5014876;28;20520;-66
2022/09/03 03:20:42;;;;;;;0.70;0.20;;;19.80;81.80;;;;;;5032710;28;20048;-65
2022/09/03 03:23:08;;;;;;;0.22;0.20;;;19.80;82.10;;;;;;5032451;28;20474;-66
2022/09/03 03:25:37;;;;;;;0.22;0.20;;;19.80;82.20;;;;;;5032797;28;20027;-66
2022/09/03 03:28:04;;;;;;;6.13;0.60;;;19.70;82.30;;;;;;5032632;28;20178;-65
2022/09/03 03:30:31;;;;;;;0.70;0.45;;;19.70;82.70;;;;;;5032530;28;20034;-66
2022/09/03 03:32:57;;;;;;;0.90;0.50;;;19.70;82.60;;;;;;5032305;28;20028;-65
2022/09/03 03:35:23;;;;;;;0.85;0.60;;;19.70;83.00;;;;;;5031368;28;20431;-66
2022/09/03 03:37:50;;;;;;;0.45;0.30;;;19.70;83.00;;;;;;5032285;28;20393;-65
2022/09/03 03:40:16;;;;;;;0.60;0.43;;;19.70;83.00;;;;;;5030960;28;20044;-64
2022/09/03 03:42:42;;;;;;;0.20;0.20;;;19.60;83.10;;;;;;5032371;28;20037;-65
2022/09/03 03:45:09;;;;;;;0.95;0.40;;;19.60;83.50;;;;;;5014476;28;20033;-65
2022/09/03 03:47:35;;;;;;;0.20;0.20;;;19.60;83.50;;;;;;5030912;28;20033;-65
2022/09/03 03:50:03;;;;;;;0.10;0.10;;;19.50;83.80;;;;;;5031978;28;20545;-65
2022/09/03 03:52:29;;;;;;;0.47;0.28;;;19.50;84.20;;;;;;5032047;28;20054;-66
2022/09/03 03:54:56;;;;;;;0.40;0.40;;;19.50;84.40;;;;;;5014358;28;20341;-65
2022/09/03 03:57:22;;;;;;;0.52;0.40;;;19.50;84.10;;;;;;5032274;28;20418;-66
2022/09/03 03:59:49;;;;;;;0.57;0.43;;;19.60;84.50;;;;;;5032017;28;20370;-66
2022/09/03 04:02:16;;;;;;;0.82;0.47;;;19.60;84.60;;;;;;5030767;28;20044;-66
2022/09/03 04:04:42;;;;;;;1.35;0.70;;;19.50;84.70;;;;;;5031883;28;20033;-66
2022/09/03 04:07:08;;;;;;;1.48;1.02;;;19.60;85.00;;;;;;5030854;28;20036;-66
2022/09/03 04:09:34;;;;;;;0.90;0.50;;;19.50;84.80;;;;;;5031643;28;20033;-66
2022/09/03 04:12:00;;;;;;;4.13;0.35;;;19.60;85.40;;;;;;5031759;28;20440;-66
2022/09/03 04:14:26;;;;;;;0.85;0.38;;;19.60;86.00;;;;;;5031760;28;20053;-66
2022/09/03 04:16:53;;;;;;;0.68;0.30;;;19.60;85.20;;;;;;5031691;28;20041;-66
2022/09/03 04:19:19;;;;;;;0.30;0.25;;;19.60;85.50;;;;;;5030488;28;20120;-66
2022/09/03 04:21:45;;;;;;;0.28;0.28;;;19.60;85.90;;;;;;5031857;28;20499;-66
2022/09/03 04:24:12;;;;;;;3.50;0.60;;;19.60;85.70;;;;;;5031579;28;20102;-66
2022/09/03 04:26:39;;;;;;;0.98;0.40;;;19.60;86.10;;;;;;5031699;28;20041;-66
2022/09/03 04:29:08;;;;;;;1.48;0.50;;;19.50;86.30;;;;;;5030124;28;20032;-66
2022/09/03 04:31:36;;;;;;;0.82;0.50;;;19.50;86.10;;;;;;5030452;28;20021;-66
2022/09/03 04:34:05;;;;;;;0.25;0.20;;;19.50;86.70;;;;;;5031152;28;20108;-66
2022/09/03 04:36:32;;;;;;;0.43;0.30;;;19.40;86.70;;;;;;5013841;28;20068;-66
2022/09/03 04:39:03;;;;;;;0.40;0.30;;;19.40;87.40;;;;;;5029743;28;20573;-66
2022/09/03 04:41:31;;;;;;;0.38;0.38;;;19.40;87.70;;;;;;5031300;28;20048;-66
2022/09/03 04:43:58;;;;;;;2.45;0.82;;;19.40;88.60;;;;;;5031060;28;20029;-66
2022/09/03 04:46:32;;;;;;;2.47;0.57;;;19.40;90.10;;;;;;5031233;28;20026;-66
2022/09/03 04:48:58;;;;;;;0.30;0.30;;;19.40;88.00;;;;;;5030944;28;20116;-66
2022/09/03 04:51:28;;;;;;;2.47;0.70;;;19.30;88.30;;;;;;5028983;28;20025;-66
2022/09/03 04:54:00;;;;;;;0.38;0.20;;;19.20;89.50;;;;;;5029383;28;20385;-67
2022/09/03 04:56:36;;;;;;;0.47;0.32;;;19.10;90.20;;;;;;5029706;28;20053;-66
2022/09/03 04:59:08;;;;;;;0.63;0.50;;;19.10;92.30;;;;;;5030662;28;20036;-66
2022/09/03 05:01:36;;;;;;;1.27;0.50;;;18.90;91.60;;;;;;5030677;28;20029;-66
2022/09/03 05:04:04;;;;;;;0.63;0.28;;;18.90;92.00;;;;;;5029068;28;20055;-66
2022/09/03 05:06:30;;;;;;;0.63;0.40;;;18.80;92.80;;;;;;5000466;28;20041;-67
2022/09/03 05:08:57;;;;;;;0.98;0.55;;;18.80;95.70;;;;;;5011471;28;20030;-66
2022/09/03 05:11:24;;;;;;;1.33;0.60;;;18.80;95.00;;;;;;5030554;28;20100;-67
2022/09/03 05:13:53;;;;;;;21.92;0.55;;;18.80;95.20;;;;;;5030487;28;20490;-67
2022/09/03 05:16:20;;;;;;;0.20;0.20;;;18.80;95.20;;;;;;5028832;28;20029;-66
2022/09/03 05:18:47;;;;;;;2.15;0.88;;;18.80;95.20;;;;;;5030304;28;20052;-66
2022/09/03 05:21:17;;;;;;;0.80;0.50;;;18.80;95.60;;;;;;5033319;28;20041;-68
2022/09/03 05:23:46;;;;;;;0.95;0.65;;;18.70;95.50;;;;;;5026290;28;20033;-67
2022/09/03 05:26:18;;;;;;;1.02;0.40;;;18.70;96.40;;;;;;5012016;28;20026;-67
2022/09/03 05:28:46;;;;;;;12.02;0.77;;;18.60;97.30;;;;;;5028871;28;20397;-67
2022/09/03 05:31:16;;;;;;;1.88;1.20;;;18.60;97.20;;;;;;5032147;28;20021;-67
2022/09/03 05:33:49;;;;;;;1.42;0.57;;;18.60;97.60;;;;;;5028392;28;20076;-67
2022/09/03 05:36:19;;;;;;;1.02;0.82;;;18.60;97.30;;;;;;5028600;28;20057;-67
2022/09/03 05:38:47;;;;;;;3.05;0.55;;;18.70;98.40;;;;;;5029793;28;20033;-67
2022/09/03 05:41:15;;;;;;;0.60;0.40;;;18.60;99.60;;;;;;5028515;28;20029;-68
2022/09/03 05:43:42;;;;;;;0.77;0.47;;;18.70;99.90;;;;;;5030083;28;20564;-67
2022/09/03 05:46:17;;;;;;;1.20;0.57;;;18.60;99.90;;;;;;5029869;28;20044;-67
2022/09/03 05:48:43;;;;;;;2.47;0.85;;;18.50;99.90;;;;;;5028355;28;20034;-66
2022/09/03 05:51:17;;;;;;;0.85;0.57;;;18.50;99.90;;;;;;5028601;28;20076;-68
2022/09/03 05:53:45;;;;;;;0.50;0.50;;;18.50;99.90;;;;;;5029796;28;20057;-68
2022/09/03 05:56:17;;;;;;;0.73;0.40;;;18.60;99.90;;;;;;5030102;28;20029;-67
2022/09/03 05:58:47;;;;;;;1.10;0.60;;;18.70;99.90;;;;;;5029990;28;20051;-66
2022/09/03 06:01:25;;;;;;;2.00;0.98;;;18.80;99.90;;;;;;5028719;28;20053;-68
2022/09/03 06:04:02;;;;;;;3.95;0.52;;;18.80;99.90;;;;;;5015540;28;20068;-67
2022/09/03 06:06:31;;;;;;;0.75;0.45;;;19.00;99.90;;;;;;5034028;28;20053;-68
2022/09/03 06:09:01;;;;;;;1.10;0.68;;;18.90;99.90;;;;;;5034066;28;20060;-68
2022/09/03 06:11:28;;;;;;;4.53;1.15;;;18.90;99.90;;;;;;5016319;28;20033;-67
2022/09/03 06:14:03;;;;;;;9.75;1.35;;;18.90;99.90;;;;;;5034077;28;20021;-69
2022/09/03 06:16:31;;;;;;;0.82;0.40;;;18.90;99.90;;;;;;5032872;28;20500;-68
2022/09/03 06:18:57;;;;;;;0.98;0.60;;;19.00;99.90;;;;;;5034102;28;20030;-68
2022/09/03 06:21:23;;;;;;;2.22;0.80;;;19.10;99.90;;;;;;5016235;28;20037;-68
2022/09/03 06:23:51;;;;;;;0.47;0.40;;;19.10;99.90;;;;;;5033966;28;20385;-68
2022/09/03 06:26:18;;;;;;;1.33;0.88;;;19.20;99.90;;;;;;5033956;28;20033;-68
2022/09/03 06:28:46;;;;;;;1.35;0.55;;;19.10;99.90;;;;;;5033527;28;20405;-68
2022/09/03 06:31:15;;;;;;;1.50;0.95;;;19.10;99.90;;;;;;5016522;28;20036;-67
2022/09/03 06:33:42;;;;;;;0.45;0.45;;;19.10;99.90;;;;;;5033645;28;20071;-68
2022/09/03 06:36:12;;;;;;;1.00;0.60;;;19.10;99.90;;;;;;5033922;28;20068;-68
2022/09/03 06:38:39;;;;;;;2.40;1.10;;;19.10;99.90;;;;;;5033247;28;20021;-67
2022/09/03 06:41:23;;;;;;;1.92;0.85;;;19.10;99.90;;;;;;5033619;28;20413;-68
2022/09/03 06:43:57;;;;;;;3.17;0.68;;;19.10;99.90;;;;;;5033809;28;20032;-67
2022/09/03 06:46:23;;;;;;;1.70;0.50;;;19.10;99.90;;;;;;5033659;28;20021;-67
2022/09/03 06:48:50;;;;;;;6.85;0.95;;;19.20;99.90;;;;;;5033263;28;20033;-67
2022/09/03 06:51:20;;;;;;;0.73;0.50;;;18.80;99.90;;;;;;5033920;28;20109;-68
2022/09/03 06:53:49;;;;;;;1.08;0.82;;;18.60;99.90;;;;;;5033060;28;20029;-67
2022/09/03 06:56:24;;;;;;;4.18;0.75;;;18.30;99.90;;;;;;5016210;28;20044;-68
2022/09/03 06:58:51;;;;;;;2.65;0.90;;;18.30;99.90;;;;;;5033393;28;20669;-68
2022/09/03 07:01:24;;;;;;;0.77;0.47;;;18.10;99.90;;;;;;5033390;28;20481;-67
2022/09/03 07:04:02;;;;;;;4.88;0.90;;;18.20;99.90;;;;;;5015819;28;20053;-68
2022/09/03 07:06:37;;;;;;;1.60;0.45;;;18.20;99.90;;;;;;5015863;28;20025;-68
2022/09/03 07:09:05;;;;;;;1.50;0.75;;;18.30;99.90;;;;;;5032874;28;20756;-68
2022/09/03 07:11:32;;;;;;;1.70;0.82;;;18.30;99.90;;;;;;5032829;28;20033;-68
2022/09/03 07:13:59;;;;;;;1.40;0.80;;;18.40;99.90;;;;;;5031189;28;20022;-67
2022/09/03 07:16:29;;;;;;;0.98;0.77;;;18.50;99.90;;;;;;5033014;28;20034;-68
2022/09/03 07:18:56;;;;;;;0.52;0.30;;;18.50;99.90;;;;;;5031083;28;20045;-70
2022/09/03 07:21:28;;;;;;;0.85;0.55;;;18.50;99.90;;;;;;5030704;28;20038;-67
2022/09/03 07:23:55;;;;;;;1.45;0.93;;;18.30;99.90;;;;;;5027807;28;20045;-71
2022/09/03 07:26:27;;;;;;;3.58;1.17;;;18.20;99.90;;;;;;5004547;28;20449;-72
2022/09/03 07:28:54;;;;;;;5.15;0.70;;;17.90;99.90;;;;;;5014746;28;20042;-72
2022/09/03 07:31:27;;;;;;;8.07;1.33;;;17.80;99.90;;;;;;5032877;28;20094;-72
2022/09/03 07:34:02;;;;;;;1.20;0.70;;;17.90;99.90;;;;;;5032524;28;20102;-72
2022/09/03 07:36:29;;;;;;;1.25;0.90;;;17.80;99.90;;;;;;4999171;28;20504;-66
2022/09/03 07:38:57;;;;;;;3.25;1.00;;;17.70;99.90;;;;;;5031738;28;20055;-62
2022/09/03 07:41:25;;;;;;;1.35;1.00;;;17.70;99.90;;;;;;5032509;28;20462;-62
2022/09/03 07:43:52;;;;;;;6.28;1.20;;;17.60;99.90;;;;;;5032341;28;20104;-62
2022/09/03 07:46:26;;;;;;;1.08;0.80;;;17.40;99.90;;;;;;5032543;28;20083;-62
2022/09/03 07:48:55;;;;;;;0.95;0.70;;;17.30;99.90;;;;;;5014407;28;20037;-62
2022/09/03 07:51:27;;;;;;;2.15;0.85;;;17.20;99.90;;;;;;5014993;28;20033;-62
2022/09/03 07:53:59;;;;;;;7.53;1.05;;;17.30;99.90;;;;;;5032036;28;20021;-62
2022/09/03 07:56:26;;;;;;;0.60;0.43;;;17.30;99.90;;;;;;5032608;28;20075;-62
2022/09/03 07:58:55;;;;;;;3.33;1.45;;;17.30;99.90;;;;;;5047335;28;20048;-62
2022/09/03 08:01:23;;;;;;;4.80;2.53;;;17.30;99.90;;;;;;5032424;28;20092;-72
2022/09/03 08:03:52;;;;;;;1.02;0.93;;;17.40;99.90;;;;;;5031863;28;20044;-71
2022/09/03 08:06:21;;;;;;;2.05;1.40;;;17.30;99.90;;;;;;5030860;28;20045;-71
2022/09/03 08:08:47;;;;;;;2.00;1.23;;;17.30;99.90;;;;;;5046988;28;20496;-71
2022/09/03 08:11:20;;;;;;;1.88;1.00;;;17.20;99.90;;;;;;5041352;28;20072;-73
2022/09/03 08:13:52;;;;;;;8.75;1.15;;;17.10;99.90;;;;;;5031793;28;20478;-71
2022/09/03 08:16:18;;;;;;;0.98;0.85;;;17.10;99.90;;;;;;5031921;28;20078;-68
2022/09/03 08:18:46;;;;;;;1.75;1.38;;;17.00;99.90;;;;;;5031684;28;20052;-67
2022/09/03 08:21:18;;;;;;;2.22;1.27;;;16.90;99.90;;;;;;5031757;28;20057;-69
2022/09/03 08:23:47;;;;;;;1.38;1.00;;;16.80;99.90;;;;;;5031499;28;20029;-68
2022/09/03 08:26:15;;;;;;;3.88;1.45;;;16.90;99.90;;;;;;5030728;28;20029;-68
2022/09/03 08:28:42;;;;;;;2.10;1.02;;;16.90;99.90;;;;;;5031274;28;20052;-69
2022/09/03 08:31:19;;;;;;;2.35;1.17;;;16.90;99.90;;;;;;5046922;28;20040;-69
2022/09/03 08:33:51;;;;;;;2.78;1.30;;;16.90;99.90;;;;;;5031340;28;20034;-67
2022/09/03 08:36:20;;;;;;;21.48;3.17;;;17.00;99.90;;;;;;5046835;28;20048;-68
2022/09/03 08:38:47;;;;;;;0.82;0.68;;;17.10;99.90;;;;;;5062201;23;20040;-69
2022/09/03 08:41:30;;;;;;;0.73;0.70;;;17.30;99.90;;;;;;5016892;28;20025;-69
2022/09/03 08:44:26;;;;;;;1.10;0.82;;;17.30;99.90;;;;;;5050624;28;20029;-68
2022/09/03 08:47:04;;;;;;;1.95;1.25;;;17.50;99.90;;;;;;5034539;28;20079;-68
2022/09/03 08:50:01;;;;;;;1.90;0.95;;;17.70;99.90;;;;;;5033304;28;20040;-68
2022/09/03 08:52:31;;;;;;;2.65;1.30;;;17.60;99.90;;;;;;5034344;28;20075;-68
2022/09/03 08:55:35;;;;;;;1.27;0.82;;;17.40;99.90;;;;;;5050411;28;20036;-69
2022/09/03 08:58:28;;;;;;;1.00;0.80;;;17.20;99.90;;;;;;5031177;28;20539;-68
2022/09/03 09:01:12;;;;;;;1.60;0.95;;;17.20;99.90;;;;;;5050448;28;20461;-68
2022/09/03 09:04:15;;;;;;;0.70;0.70;;;17.10;99.90;;;;;;5033559;28;20127;-67
2022/09/03 09:06:52;;;;;;;2.05;1.50;;;17.00;99.90;;;;;;5050952;28;20091;-68
2022/09/03 09:09:51;;;;;;;4.05;1.80;;;16.90;99.90;;;;;;5033827;28;20032;-68
2022/09/03 09:12:19;;;;;;;2.38;1.08;;;16.80;99.90;;;;;;5017782;28;20029;-68
2022/09/03 09:15:29;;;;;;;1.45;0.88;;;17.00;99.90;;;;;;5030621;28;20126;-69
2022/09/03 09:18:06;;;;;;;1.67;1.30;;;17.00;99.90;;;;;;5030705;28;20121;-69
2022/09/03 09:21:14;;;;;;;2.20;1.23;;;16.90;99.90;;;;;;5030859;28;20029;-68
2022/09/03 09:23:44;;;;;;;4.45;1.80;;;16.70;99.90;;;;;;5004430;28;20045;-69
2022/09/03 09:26:15;;;;;;;1.35;1.05;;;16.70;99.90;;;;;;5050086;28;20072;-69
2022/09/03 09:28:45;;;;;;;15.35;1.60;;;16.80;99.90;;;;;;5050242;28;20036;-72
2022/09/03 09:31:17;;;;;;;3.10;1.83;;;17.00;99.90;;;;;;5046169;28;20032;-69
2022/09/03 09:33:44;;;;;;;4.60;3.10;;;17.10;99.90;;;;;;5033442;28;20024;-69
2022/09/03 09:36:18;;;;;;;3.45;2.28;;;17.30;99.90;;;;;;5050163;28;20535;-65
2022/09/03 09:38:45;;;;;;;1.70;1.10;;;17.40;99.90;;;;;;5048658;28;20400;-61
2022/09/03 09:41:20;;;;;;;2.03;1.02;;;17.60;99.90;;;;;;5050886;28;20056;-62
2022/09/03 09:43:47;;;;;;;5.20;1.75;;;17.70;99.90;;;;;;5048837;28;20031;-58
2022/09/03 09:46:28;;;;;;;3.13;1.58;;;17.80;99.90;;;;;;5049169;28;20024;-60
2022/09/03 09:48:57;;;;;;;6.93;1.10;;;18.10;99.90;;;;;;5049805;28;20040;-61
2022/09/03 09:51:30;;;;;;;1.10;0.98;;;18.20;99.90;;;;;;5049343;28;20029;-58
2022/09/03 09:54:26;;;;;;;1.70;1.30;;;18.60;99.90;;;;;;5023091;28;20071;-68
2022/09/03 09:57:05;;;;;;;1.05;0.90;;;19.00;99.90;;;;;;5023210;28;20041;-68
2022/09/03 09:59:33;;;;;;;2.85;1.63;;;19.30;99.90;;;;;;5025186;28;20029;-69
2022/09/03 10:02:11;;;;;;;2.00;1.00;;;19.40;99.90;;;;;;5038043;28;20052;-68
2022/09/03 10:04:39;;;;;;;4.43;1.52;;;19.60;99.90;;;;;;5028721;28;20038;-68
2022/09/03 10:07:31;;;;;;;1.50;1.17;;;19.60;99.90;;;;;;5029166;28;20140;-68
2022/09/03 10:10:07;;;;;;;1.65;1.17;;;19.60;99.90;;;;;;5012431;28;20501;-68
2022/09/03 10:12:40;;;;;;;3.70;1.55;;;20.00;99.90;;;;;;5029097;28;20030;-68
2022/09/03 10:15:39;;;;;;;1.20;0.98;;;20.00;99.90;;;;;;5030485;28;20023;-68
2022/09/03 10:18:45;;;;;;;2.05;1.35;;;20.00;99.90;;;;;;5029924;28;20033;-69
2022/09/03 10:21:27;;;;;;;4.95;1.80;;;20.30;99.90;;;;;;5012497;28;20491;-68
2022/09/03 10:24:07;;;;;;;1.58;0.98;;;20.20;99.90;;;;;;5015204;28;20040;-69
2022/09/03 10:26:35;;;;;;;2.85;1.35;;;20.40;99.90;;;;;;5049749;28;20029;-69
2022/09/03 10:29:04;;;;;;;1.67;1.17;;;20.40;99.90;;;;;;5031702;28;20036;-69
2022/09/03 10:32:01;;;;;;;2.28;1.55;;;20.50;99.90;;;;;;5032221;28;20032;-69
2022/09/03 10:34:33;;;;;;;1.27;0.90;;;20.30;99.90;;;;;;5032860;28;20037;-69
2022/09/03 10:37:39;;;;;;;2.63;1.45;;;20.50;99.90;;;;;;5049866;28;20032;-69
2022/09/03 10:40:40;;;;;;;1.17;0.82;;;20.50;99.90;;;;;;5031588;28;20381;-69
2022/09/03 10:43:50;;;;;;;2.15;1.17;;;20.90;99.90;;;;;;5043994;28;20120;-70
2022/09/03 10:46:25;;;;;;;5.03;1.63;;;21.20;99.90;;;;;;5049458;28;20037;-68
2022/09/03 10:49:34;;;;;;;1.45;1.00;;;21.70;99.90;;;;;;5032609;28;20114;-68
2022/09/03 10:52:16;;;;;;;4.22;1.38;;;21.40;99.90;;;;;;5036729;28;20021;-69
2022/09/03 10:55:18;;;;;;;1.92;1.20;;;21.60;99.90;;;;;;5019129;28;20024;-70
2022/09/03 10:58:02;;;;;;;;;;;21.70;99.90;;;;;;4952770;29;20066;-70
2022/09/03 11:00:33;;;;;;;1.92;0.98;;;21.80;99.90;;;;;;5028664;28;19966;-71
2022/09/03 11:04:06;;;;;;;2.53;1.40;;;21.90;99.90;;;;;;5019022;28;20025;-71
2022/09/03 11:06:48;;;;;;;1.80;0.75;;;22.20;99.90;;;;;;4937766;29;20035;-71
2022/09/03 11:09:25;;;;;;;6.90;1.27;;;22.70;99.90;;;;;;4952296;29;20432;-71
2022/09/03 11:11:59;;;;;;;2.75;1.63;;;22.80;99.90;;;;;;4938487;29;20046;-71
2022/09/03 11:14:42;;;;;;;3.15;1.13;;;23.10;99.90;;;;;;4917737;29;20106;-72
2022/09/03 11:17:28;;;;;;;2.28;1.13;;;23.00;99.90;;;;;;4918913;29;20497;-71
2022/09/03 11:20:09;;;;;;;2.88;1.40;;;23.40;99.90;;;;;;4917857;29;20043;-71
2022/09/03 11:22:37;;;;;;;3.20;1.13;;;23.80;99.90;;;;;;4935391;29;20027;-70
2022/09/03 11:25:06;;;;;;;2.58;1.30;;;24.30;99.90;;;;;;4944175;29;20102;-70
2022/09/03 11:27:41;;;;;;;2.33;1.15;;;24.20;99.90;;;;;;4952280;29;20031;-69
2022/09/03 11:30:10;;;;;;;1.40;1.00;;;23.80;99.90;;;;;;4936030;29;20066;-69
2022/09/03 11:32:42;;;;;;;1.10;0.60;;;23.50;99.90;;;;;;4951954;29;20492;-69
2022/09/03 11:35:37;;;;;;;1.77;1.05;;;23.50;99.90;;;;;;4951444;29;20040;-70
2022/09/03 11:38:20;;;;;;;3.13;0.80;;;23.90;99.90;;;;;;5019860;28;20043;-69
2022/09/03 11:41:02;;;;;;;1.38;0.95;;;24.20;99.90;;;;;;5050695;28;20067;-69
2022/09/03 11:43:33;;;;;;;1.83;0.98;;;24.70;99.90;;;;;;5051799;28;20040;-61
2022/09/03 11:46:12;;;;;;;0.75;0.40;;;24.60;99.90;;;;;;5051950;28;20024;-61
2022/09/03 11:48:45;;;;;;;1.70;0.63;;;25.30;99.90;;;;;;5052193;28;20037;-60
2022/09/03 11:51:32;;;;;;;0.80;0.32;;;25.10;99.10;;;;;;5030256;28;20036;-60
2022/09/03 11:54:24;;;;;;;1.13;0.60;;;24.90;99.70;;;;;;5034182;28;20170;-61
2022/09/03 11:57:02;;;;;;;1.60;0.70;;;25.30;99.80;;;;;;5047720;28;20040;-61
2022/09/03 11:59:29;;;;;;;1.08;0.75;;;25.50;99.90;;;;;;5034062;28;20502;-61
2022/09/03 12:02:02;;;;;;;0.43;0.30;;;25.50;99.50;;;;;;5029988;28;20144;-61
2022/09/03 12:05:09;;;;;;;1.23;0.55;;;25.30;99.50;;;;;;5031268;28;20033;-61
2022/09/03 12:08:01;;;;;;;1.10;0.57;;;24.80;99.50;;;;;;5043026;28;20398;-60
2022/09/03 12:10:47;;;;;;;0.50;0.40;;;24.60;99.30;;;;;;5030971;28;20384;-70
2022/09/03 12:13:55;;;;;;;0.60;0.30;;;25.10;99.20;;;;;;5030535;28;20087;-71
2022/09/03 12:16:32;;;;;;;1.35;0.38;;;25.00;98.30;;;;;;5034775;28;20084;-70
2022/09/03 12:19:30;;;;;;;0.55;0.40;;;24.60;99.50;;;;;;5049685;28;20033;-71
2022/09/03 12:21:55;;;;;;;2.03;0.77;;;25.20;98.20;;;;;;5050446;28;20037;-70
2022/09/03 12:24:22;;;;;;;3.25;0.50;;;24.80;99.90;;;;;;5050799;28;20143;-71
2022/09/03 12:26:48;;;;;;;0.75;0.40;;;25.40;98.10;;;;;;5050825;28;20029;-71
2022/09/03 12:29:26;;;;;;;3.72;0.90;;;25.00;98.40;;;;;;5032916;28;20533;-70
2022/09/03 12:31:53;;;;;;;1.35;0.50;;;24.90;98.60;;;;;;5049778;28;20043;-68
2022/09/03 12:34:20;;;;;;;0.88;0.47;;;25.50;98.70;;;;;;5013312;28;20104;-68
2022/09/03 12:36:54;;;;;;;0.50;0.40;;;25.60;97.60;;;;;;5012853;28;20390;-69
2022/09/03 12:39:23;;;;;;;1.45;0.88;;;25.40;97.90;;;;;;5031486;28;20120;-70
2022/09/03 12:41:54;;;;;;;4.68;0.65;;;24.90;98.60;;;;;;5030918;28;20068;-69
2022/09/03 12:44:38;;;;;;;0.95;0.73;;;25.00;99.90;;;;;;5042857;28;20068;-69
2022/09/03 12:47:17;;;;;;;2.70;0.85;;;24.60;99.70;;;;;;5048582;28;20053;-71
2022/09/03 12:49:55;;;;;;;0.45;0.30;;;25.30;98.90;;;;;;5026475;28;20461;-70
2022/09/03 12:53:00;;;;;;;0.90;0.47;;;25.20;99.00;;;;;;5029697;28;20025;-71
2022/09/03 12:55:29;;;;;;;0.82;0.60;;;25.00;99.40;;;;;;5027974;28;20557;-71
2022/09/03 12:58:15;;;;;;;3.33;0.30;;;24.70;98.80;;;;;;5041915;28;20754;-71
2022/09/03 13:00:59;;;;;;;0.60;0.43;;;25.00;98.20;;;;;;5012589;28;20025;-71
2022/09/03 13:03:33;;;;;;;1.30;0.50;;;25.30;98.40;;;;;;5044567;28;20040;-72
2022/09/03 13:06:06;;;;;;;0.50;0.40;;;26.10;97.20;;;;;;5012855;28;20037;-71
2022/09/03 13:08:45;;;;;;;0.80;0.55;;;26.60;96.50;;;;;;5030491;28;20485;-72
2022/09/03 13:11:18;;;;;;;1.08;0.30;;;26.50;96.00;;;;;;5028499;28;20027;-73
2022/09/03 13:14:09;;;;;;;1.10;0.50;;;25.80;96.70;;;;;;5046750;28;20045;-70
2022/09/03 13:16:47;;;;;;;0.47;0.47;;;25.80;97.60;;;;;;5040604;28;20394;-71
2022/09/03 13:19:54;;;;;;;0.90;0.70;;;25.40;98.30;;;;;;5038014;28;20029;-70
2022/09/03 13:22:38;;;;;;;0.93;0.57;;;25.10;99.10;;;;;;5040882;28;20028;-71
2022/09/03 13:25:32;;;;;;;2.75;0.55;;;26.00;97.60;;;;;;5039274;28;20040;-71
2022/09/03 13:28:38;;;;;;;1.08;0.82;;;27.30;96.40;;;;;;5032926;28;20075;-72
2022/09/03 13:31:24;;;;;;;0.63;0.50;;;27.10;95.70;;;;;;5030107;28;20083;-70
2022/09/03 13:34:04;;;;;;;1.27;0.80;;;27.60;94.70;;;;;;5029544;28;20056;-75
2022/09/03 13:36:42;;;;;;;1.88;0.85;;;26.80;95.20;;;;;;5029643;28;20501;-71